Language: 


Des rapports , des résumés tant et plus, au choix de chacun....


Données statistiques de la station
Quotidien Rapport Janvier 23, 2017 Unités:  Métrique    Anglais   les deux
« Précédent Jour
Suivant Jour »
Quotidien Hebdomadaire Mensuel Annuel Actuel
  Haut: Bas: Moyen:
Température: 1.9 °C -4.3 °C 0.2 °C
Pt de rosée: 1.6 °C -5.3 °C -0.2 °C
Humidité: 98 % 0 % 97 %
Vitesse du vent: 10.5 km/h 0.0 km/h 2.6 km/h
Rafales: 11.9 km/h - -
Vent:- - WSW
Pression: 1028.0 hPa 0.0 hPa -
Précipitation: 0.0 mm    
Historical Graphs
 
 
Données statistiques pour Janvier 23, 2017
Heure Température Point de rosée Pression Vent Vitesse du vent Refales Humidité Pluie (taux horaire)
00:04 -4.3 °C -5.3 °C 1027.0 hPa Calm   3.2 km/h 93 % 0.0 mm
00:09 -4.2 °C -5.2 °C 1027.0 hPa West 1.8 km/h 4.0 km/h 93 % 0.0 mm
00:14 -4.1 °C -5.1 °C 1027.0 hPa Calm   4.0 km/h 93 % 0.0 mm
00:19 -4.0 °C -4.8 °C 1027.0 hPa Calm     94 % 0.0 mm
00:24 -3.8 °C -4.7 °C 1027.0 hPa Calm     94 % 0.0 mm
00:29 -3.6 °C -4.3 °C 1027.0 hPa Calm     95 % 0.0 mm
00:34 -3.4 °C -4.1 °C 1027.0 hPa Calm     95 % 0.0 mm
00:39 -3.2 °C -3.8 °C 1027.0 hPa Calm     96 % 0.0 mm
00:44 -3.1 °C -3.7 °C 1027.0 hPa Calm     96 % 0.0 mm
00:49 -2.9 °C -3.3 °C 1027.0 hPa Calm     97 % 0.0 mm
00:54 -2.7 °C -3.3 °C 1026.0 hPa Calm     96 % 0.0 mm
00:59 -2.6 °C -2.9 °C 1026.0 hPa Calm     97 % 0.0 mm
01:04 -2.3 °C -2.8 °C 1026.0 hPa Calm     97 % 0.0 mm
01:09 -2.3 °C -2.7 °C 1027.0 hPa Calm     97 % 0.0 mm
01:14 -2.2 °C -2.6 °C 1027.0 hPa Calm     97 % 0.0 mm
01:19 -2.1 °C -2.4 °C 1027.0 hPa Calm     97 % 0.0 mm
01:24 -1.9 °C -2.4 °C 1027.0 hPa Calm     97 % 0.0 mm
01:29 -1.9 °C -2.3 °C 1027.0 hPa Calm     97 % 0.0 mm
01:34 -1.8 °C -2.2 °C 1027.0 hPa Calm     97 % 0.0 mm
01:39 -1.7 °C -2.1 °C 1027.0 hPa Calm     97 % 0.0 mm
01:44 -1.7 °C -2.1 °C 1027.0 hPa Calm     97 % 0.0 mm
01:49 -1.6 °C -2.0 °C 1027.0 hPa Calm     97 % 0.0 mm
01:54 -1.4 °C -1.9 °C 1027.0 hPa Calm   2.6 km/h 97 % 0.0 mm
01:59 -1.4 °C -1.8 °C 1027.0 hPa Calm   2.6 km/h 97 % 0.0 mm
02:04 -1.4 °C -1.8 °C 1027.0 hPa Calm   2.1 km/h 97 % 0.0 mm
02:09 -1.3 °C -1.7 °C 1027.0 hPa Calm   2.1 km/h 97 % 0.0 mm
02:14 -1.2 °C -1.6 °C 1027.0 hPa Calm   2.1 km/h 97 % 0.0 mm
02:20 -1.1 °C -1.5 °C 1027.0 hPa Calm     97 % 0.0 mm
02:28 -1.0 °C -1.4 °C 1027.0 hPa Calm     97 % 0.0 mm
02:33 -1.0 °C -1.4 °C 1027.0 hPa Calm     97 % 0.0 mm
02:38 -0.9 °C -1.3 °C 1027.0 hPa Calm     97 % 0.0 mm
02:43 -0.8 °C -1.2 °C 1027.0 hPa Calm     97 % 0.0 mm
02:54 -0.7 °C -1.1 °C 1026.0 hPa Calm     97 % 0.0 mm
02:59 -0.7 °C -1.1 °C 1026.0 hPa Calm     97 % 0.0 mm
03:06 0.0 °C -1.0 °C 0.0 hPa Calm     0 % 0.0 mm
03:11 -0.6 °C -1.0 °C 1026.0 hPa Calm     97 % 0.0 mm
03:16 -0.5 °C -0.9 °C 1026.0 hPa Calm     97 % 0.0 mm
03:21 -0.5 °C -0.9 °C 1026.0 hPa Calm     97 % 0.0 mm
03:26 -0.5 °C -0.9 °C 1026.0 hPa Calm     97 % 0.0 mm
03:31 -0.4 °C -0.8 °C 1026.0 hPa Calm     97 % 0.0 mm
03:36 -0.4 °C -0.8 °C 1026.0 hPa Calm     97 % 0.0 mm
03:41 -0.3 °C -0.7 °C 1026.0 hPa SE 1.4 km/h 1.4 km/h 97 % 0.0 mm
03:46 -0.3 °C -0.7 °C 1026.0 hPa Calm   1.8 km/h 97 % 0.0 mm
03:51 -0.2 °C -0.5 °C 1026.0 hPa Calm   1.8 km/h 98 % 0.0 mm
03:56 -0.2 °C -0.5 °C 1026.0 hPa Calm     98 % 0.0 mm
04:01 -0.2 °C -0.5 °C 1026.0 hPa Calm     98 % 0.0 mm
04:04 -0.2 °C -0.5 °C 1026.0 hPa Calm     98 % 0.0 mm
04:09 -0.2 °C -0.5 °C 1026.0 hPa Calm   1.4 km/h 98 % 0.0 mm
04:14 -0.2 °C -0.5 °C 1026.0 hPa Calm   1.4 km/h 98 % 0.0 mm
04:20 -0.1 °C -0.4 °C 1026.0 hPa WNW 5.5 km/h 5.5 km/h 98 % 0.0 mm
04:25 0.0 °C -0.3 °C 1026.0 hPa Calm   5.5 km/h 98 % 0.0 mm
04:30 0.0 °C -0.3 °C 1026.0 hPa Calm   5.5 km/h 98 % 0.0 mm
04:35 0.0 °C -0.3 °C 1026.0 hPa Calm   2.6 km/h 98 % 0.0 mm
04:40 0.1 °C -0.2 °C 1026.0 hPa Calm   2.6 km/h 98 % 0.0 mm
04:45 0.1 °C -0.2 °C 1026.0 hPa WNW 1.4 km/h 2.6 km/h 98 % 0.0 mm
04:50 0.1 °C -0.2 °C 1026.0 hPa Calm   2.6 km/h 98 % 0.0 mm
04:55 0.1 °C -0.2 °C 1026.0 hPa Calm   3.2 km/h 98 % 0.0 mm
05:00 0.1 °C -0.2 °C 1026.0 hPa Calm   3.2 km/h 98 % 0.0 mm
05:05 0.1 °C -0.2 °C 1026.0 hPa Calm     98 % 0.0 mm
05:10 0.1 °C -0.2 °C 1026.0 hPa Calm     98 % 0.0 mm
05:15 0.1 °C -0.2 °C 1026.0 hPa Calm     98 % 0.0 mm
05:20 0.1 °C -0.2 °C 1026.0 hPa Calm     98 % 0.0 mm
05:25 0.2 °C -0.1 °C 1026.0 hPa Calm     98 % 0.0 mm
05:30 0.2 °C -0.1 °C 1026.0 hPa Calm   3.5 km/h 98 % 0.0 mm
05:35 0.3 °C 0.0 °C 1026.0 hPa Calm   3.5 km/h 98 % 0.0 mm
05:40 0.3 °C 0.0 °C 1026.0 hPa Calm   2.1 km/h 98 % 0.0 mm
05:41 0.3 °C 0.0 °C 1026.0 hPa Calm   2.1 km/h 98 % 0.0 mm
05:46 0.4 °C 0.1 °C 1026.0 hPa Calm     98 % 0.0 mm
05:51 0.4 °C 0.1 °C 1026.0 hPa Calm     98 % 0.0 mm
05:56 0.4 °C 0.1 °C 1026.0 hPa Calm     98 % 0.0 mm
06:01 0.4 °C 0.1 °C 1026.0 hPa SE 1.8 km/h 1.8 km/h 98 % 0.0 mm
06:06 0.4 °C 0.1 °C 1026.0 hPa Calm   3.2 km/h 98 % 0.0 mm
06:11 0.4 °C 0.1 °C 1026.0 hPa Calm   3.2 km/h 98 % 0.0 mm
06:12 0.4 °C 0.1 °C 1026.0 hPa Calm   2.1 km/h 98 % 0.0 mm
06:17 0.4 °C 0.1 °C 1026.0 hPa Calm     98 % 0.0 mm
06:22 0.4 °C 0.1 °C 1026.0 hPa Calm     98 % 0.0 mm
06:27 0.4 °C 0.1 °C 1026.0 hPa Calm     98 % 0.0 mm
06:32 0.5 °C 0.2 °C 1026.0 hPa Calm     98 % 0.0 mm
06:37 0.6 °C 0.3 °C 1026.0 hPa Calm   2.1 km/h 98 % 0.0 mm
06:42 0.6 °C 0.3 °C 1026.0 hPa Calm   2.1 km/h 98 % 0.0 mm
06:47 0.6 °C 0.3 °C 1026.0 hPa Calm     98 % 0.0 mm
06:52 0.6 °C 0.3 °C 1026.0 hPa Calm     98 % 0.0 mm
06:57 0.6 °C 0.3 °C 1026.0 hPa Calm   2.6 km/h 98 % 0.0 mm
07:02 0.6 °C 0.3 °C 1026.0 hPa WNW 2.6 km/h 4.0 km/h 98 % 0.0 mm
07:07 0.6 °C 0.3 °C 1027.0 hPa Calm   4.0 km/h 98 % 0.0 mm
07:08 0.6 °C 0.3 °C 1027.0 hPa Calm   4.0 km/h 98 % 0.0 mm
07:13 0.6 °C 0.3 °C 1027.0 hPa Calm   3.2 km/h 98 % 0.0 mm
07:18 0.6 °C 0.3 °C 1027.0 hPa Calm     98 % 0.0 mm
07:23 0.6 °C 0.3 °C 1027.0 hPa NW 3.2 km/h 4.0 km/h 98 % 0.0 mm
07:28 0.7 °C 0.4 °C 1027.0 hPa WNW 2.6 km/h 4.0 km/h 98 % 0.0 mm
07:33 0.7 °C 0.4 °C 1027.0 hPa Calm   3.5 km/h 98 % 0.0 mm
07:38 0.7 °C 0.4 °C 1027.0 hPa Calm   2.6 km/h 98 % 0.0 mm
07:43 0.7 °C 0.4 °C 1027.0 hPa Calm   3.2 km/h 98 % 0.0 mm
07:48 0.7 °C 0.4 °C 1027.0 hPa NE 3.2 km/h 4.0 km/h 98 % 0.0 mm
07:53 0.7 °C 0.4 °C 1027.0 hPa Calm   4.7 km/h 98 % 0.0 mm
07:58 0.7 °C 0.4 °C 1027.0 hPa Calm   4.7 km/h 98 % 0.0 mm
08:03 0.7 °C 0.4 °C 1027.0 hPa Calm     98 % 0.0 mm
08:08 0.7 °C 0.4 °C 1027.0 hPa WNW 2.1 km/h 3.2 km/h 98 % 0.0 mm
08:13 0.7 °C 0.4 °C 1027.0 hPa Calm   3.2 km/h 98 % 0.0 mm
08:18 0.7 °C 0.4 °C 1027.0 hPa Calm   1.4 km/h 98 % 0.0 mm
08:23 0.7 °C 0.4 °C 1026.0 hPa East 2.6 km/h 3.5 km/h 98 % 0.0 mm
08:28 0.8 °C 0.5 °C 1026.0 hPa ESE 3.2 km/h 4.3 km/h 98 % 0.0 mm
08:33 0.8 °C 0.5 °C 1026.0 hPa Calm   4.3 km/h 98 % 0.0 mm
08:38 0.9 °C 0.6 °C 1026.0 hPa Calm   3.2 km/h 98 % 0.0 mm
08:43 0.9 °C 0.6 °C 1026.0 hPa Calm   2.6 km/h 98 % 0.0 mm
08:48 0.9 °C 0.6 °C 1026.0 hPa South 5.5 km/h 5.5 km/h 98 % 0.0 mm
08:53 1.0 °C 0.7 °C 1027.0 hPa South 1.8 km/h 5.5 km/h 98 % 0.0 mm
08:58 1.0 °C 0.7 °C 1027.0 hPa SW 4.0 km/h 5.5 km/h 98 % 0.0 mm
09:03 1.0 °C 0.7 °C 1027.0 hPa Calm   5.0 km/h 98 % 0.0 mm
09:08 1.0 °C 0.7 °C 1027.0 hPa South 2.6 km/h 4.3 km/h 98 % 0.0 mm
09:13 1.0 °C 0.7 °C 1027.0 hPa South 4.7 km/h 5.5 km/h 98 % 0.0 mm
09:18 1.1 °C 0.8 °C 1027.0 hPa Calm   5.5 km/h 98 % 0.0 mm
09:23 1.1 °C 0.8 °C 1027.0 hPa SSE 4.3 km/h 6.4 km/h 98 % 0.0 mm
09:28 1.1 °C 0.8 °C 1027.0 hPa SSW 5.8 km/h 6.4 km/h 98 % 0.0 mm
09:33 1.1 °C 0.8 °C 1027.0 hPa South 2.6 km/h 6.4 km/h 98 % 0.0 mm
09:38 1.1 °C 0.8 °C 1027.0 hPa SSW 4.3 km/h 6.1 km/h 98 % 0.0 mm
09:43 1.2 °C 0.9 °C 1027.0 hPa SSW 4.0 km/h 5.5 km/h 98 % 0.0 mm
09:48 1.2 °C 0.9 °C 1027.0 hPa Calm   5.5 km/h 98 % 0.0 mm
09:53 1.3 °C 1.0 °C 1027.0 hPa SSW 3.5 km/h 4.7 km/h 98 % 0.0 mm
09:58 1.3 °C 1.0 °C 1027.0 hPa SSW 3.5 km/h 4.7 km/h 98 % 0.0 mm
10:03 1.4 °C 1.1 °C 1027.0 hPa South 3.2 km/h 4.7 km/h 98 % 0.0 mm
10:08 1.4 °C 1.1 °C 1027.0 hPa West 3.2 km/h 4.7 km/h 98 % 0.0 mm
10:13 1.4 °C 1.2 °C 1027.0 hPa Calm   4.0 km/h 98 % 0.0 mm
10:18 1.6 °C 1.3 °C 1027.0 hPa Calm   4.0 km/h 98 % 0.0 mm
10:23 1.6 °C 1.3 °C 1027.0 hPa Calm   3.5 km/h 98 % 0.0 mm
10:28 1.6 °C 1.3 °C 1027.0 hPa NW 1.8 km/h 4.0 km/h 98 % 0.0 mm
10:33 1.7 °C 1.4 °C 1027.0 hPa Calm   5.0 km/h 98 % 0.0 mm
10:38 1.7 °C 1.4 °C 1027.0 hPa West 5.0 km/h 5.0 km/h 98 % 0.0 mm
10:43 1.8 °C 1.5 °C 1027.0 hPa WNW 2.6 km/h 5.0 km/h 98 % 0.0 mm
10:48 1.8 °C 1.5 °C 1027.0 hPa Calm   5.5 km/h 98 % 0.0 mm
10:53 1.8 °C 1.5 °C 1027.0 hPa Calm   5.5 km/h 98 % 0.0 mm
10:58 1.8 °C 1.5 °C 1027.0 hPa West 4.0 km/h 4.0 km/h 98 % 0.0 mm
11:03 1.9 °C 1.6 °C 1027.0 hPa WSW 5.0 km/h 5.8 km/h 98 % 0.0 mm
11:08 1.9 °C 1.6 °C 1028.0 hPa WSW 4.3 km/h 5.8 km/h 98 % 0.0 mm
11:13 1.9 °C 1.6 °C 1028.0 hPa WSW 4.3 km/h 5.0 km/h 98 % 0.0 mm
11:18 1.9 °C 1.6 °C 1028.0 hPa West 5.8 km/h 6.1 km/h 98 % 0.0 mm
11:23 1.9 °C 1.6 °C 1028.0 hPa WSW 4.7 km/h 6.9 km/h 98 % 0.0 mm
11:28 1.9 °C 1.6 °C 1028.0 hPa West 6.4 km/h 8.7 km/h 98 % 0.0 mm
11:33 1.9 °C 1.6 °C 1028.0 hPa WSW 6.9 km/h 9.0 km/h 98 % 0.0 mm
11:38 1.9 °C 1.6 °C 1027.0 hPa WNW 4.0 km/h 9.0 km/h 98 % 0.0 mm
11:43 1.9 °C 1.6 °C 1027.0 hPa West 5.0 km/h 7.9 km/h 97 % 0.0 mm
11:48 1.9 °C 1.6 °C 1027.0 hPa West 6.1 km/h 8.7 km/h 97 % 0.0 mm
11:53 1.9 °C 1.6 °C 1027.0 hPa WSW 4.7 km/h 8.7 km/h 97 % 0.0 mm
11:58 1.9 °C 1.6 °C 1027.0 hPa West 6.1 km/h 9.0 km/h 97 % 0.0 mm
12:03 1.9 °C 1.6 °C 1027.0 hPa WSW 6.1 km/h 9.0 km/h 98 % 0.0 mm
12:08 1.9 °C 1.4 °C 1027.0 hPa West 5.8 km/h 9.0 km/h 97 % 0.0 mm
12:13 1.9 °C 1.4 °C 1027.0 hPa West 7.9 km/h 10.1 km/h 97 % 0.0 mm
12:18 1.9 °C 1.4 °C 1027.0 hPa West 2.1 km/h 10.1 km/h 97 % 0.0 mm
12:23 1.9 °C 1.4 °C 1027.0 hPa WNW 7.9 km/h 9.7 km/h 97 % 0.0 mm
12:28 1.8 °C 1.3 °C 1027.0 hPa West 1.4 km/h 9.7 km/h 97 % 0.0 mm
12:33 1.9 °C 1.4 °C 1027.0 hPa Calm   9.7 km/h 97 % 0.0 mm
12:38 1.9 °C 1.4 °C 1027.0 hPa Calm   8.7 km/h 97 % 0.0 mm
12:43 1.9 °C 1.4 °C 1027.0 hPa SW 5.5 km/h 8.7 km/h 97 % 0.0 mm
12:48 1.9 °C 1.4 °C 1027.0 hPa West 5.5 km/h 8.7 km/h 97 % 0.0 mm
12:53 1.9 °C 1.4 °C 1026.0 hPa West 8.7 km/h 9.7 km/h 97 % 0.0 mm
12:58 1.8 °C 1.3 °C 1026.0 hPa West 5.0 km/h 9.7 km/h 97 % 0.0 mm
13:03 1.8 °C 1.3 °C 1026.0 hPa West 2.1 km/h 10.1 km/h 97 % 0.0 mm
13:08 1.8 °C 1.3 °C 1027.0 hPa WSW 6.9 km/h 10.1 km/h 97 % 0.0 mm
13:13 1.7 °C 1.2 °C 1027.0 hPa WNW 8.7 km/h 9.0 km/h 97 % 0.0 mm
13:18 1.7 °C 1.2 °C 1027.0 hPa West 10.1 km/h 10.1 km/h 97 % 0.0 mm
13:23 1.7 °C 1.1 °C 1027.0 hPa West 1.4 km/h 10.1 km/h 96 % 0.0 mm
13:28 1.7 °C 1.1 °C 1027.0 hPa West 6.1 km/h 10.1 km/h 96 % 0.0 mm
13:33 1.6 °C 1.0 °C 1027.0 hPa West 7.6 km/h 10.5 km/h 96 % 0.0 mm
13:38 1.6 °C 1.0 °C 1027.0 hPa WNW 6.1 km/h 11.6 km/h 96 % 0.0 mm
13:43 1.6 °C 1.0 °C 1027.0 hPa West 5.8 km/h 11.6 km/h 96 % 0.0 mm
13:48 1.6 °C 1.0 °C 1027.0 hPa WSW 6.1 km/h 9.3 km/h 96 % 0.0 mm
13:53 1.4 °C 0.9 °C 1027.0 hPa SSW 1.8 km/h 7.2 km/h 96 % 0.0 mm
13:58 1.4 °C 0.9 °C 1027.0 hPa Calm   6.4 km/h 96 % 0.0 mm
14:03 1.4 °C 0.9 °C 1027.0 hPa Calm   8.7 km/h 96 % 0.0 mm
14:08 1.4 °C 0.9 °C 1026.0 hPa Calm   8.7 km/h 96 % 0.0 mm
14:13 1.4 °C 0.9 °C 1026.0 hPa Calm   6.4 km/h 96 % 0.0 mm
14:18 1.4 °C 0.9 °C 1026.0 hPa West 2.6 km/h 7.2 km/h 96 % 0.0 mm
14:23 1.4 °C 0.8 °C 1027.0 hPa SW 5.5 km/h 7.2 km/h 96 % 0.0 mm
14:28 1.4 °C 0.8 °C 1027.0 hPa Calm   6.9 km/h 96 % 0.0 mm
14:33 1.4 °C 0.8 °C 1027.0 hPa Calm   6.1 km/h 96 % 0.0 mm
14:38 1.4 °C 0.8 °C 1027.0 hPa SW 6.4 km/h 8.7 km/h 96 % 0.0 mm
14:43 1.4 °C 0.8 °C 1027.0 hPa WSW 6.4 km/h 8.7 km/h 96 % 0.0 mm
14:48 1.3 °C 0.7 °C 1027.0 hPa Calm   7.9 km/h 96 % 0.0 mm
14:53 1.3 °C 0.7 °C 1027.0 hPa WSW 6.4 km/h 8.7 km/h 96 % 0.0 mm
14:58 1.3 °C 0.7 °C 1027.0 hPa Calm   8.7 km/h 96 % 0.0 mm
15:03 1.3 °C 0.7 °C 1027.0 hPa West 7.9 km/h 9.0 km/h 96 % 0.0 mm
15:08 1.2 °C 0.6 °C 1027.0 hPa West 9.0 km/h 10.5 km/h 96 % 0.0 mm
15:13 1.1 °C 0.4 °C 1027.0 hPa WSW 6.4 km/h 10.5 km/h 95 % 0.0 mm
15:18 1.0 °C 0.3 °C 1027.0 hPa SW 4.0 km/h 11.9 km/h 95 % 0.0 mm
15:23 1.0 °C 0.4 °C 1027.0 hPa SW 3.5 km/h 11.9 km/h 96 % 0.0 mm
15:28 1.0 °C 0.4 °C 1027.0 hPa Calm   7.6 km/h 96 % 0.0 mm
15:33 1.0 °C 0.4 °C 1027.0 hPa WSW 8.7 km/h 8.7 km/h 96 % 0.0 mm
15:38 1.0 °C 0.4 °C 1027.0 hPa Calm   8.7 km/h 96 % 0.0 mm
15:43 0.9 °C 0.3 °C 1027.0 hPa Calm   8.7 km/h 96 % 0.0 mm
15:48 0.9 °C 0.3 °C 1027.0 hPa SSW 4.7 km/h 6.9 km/h 96 % 0.0 mm
15:53 0.9 °C 0.3 °C 1027.0 hPa SW 6.4 km/h 7.2 km/h 96 % 0.0 mm
15:58 0.8 °C 0.2 °C 1027.0 hPa SSW 2.6 km/h 7.2 km/h 96 % 0.0 mm
16:03 0.8 °C 0.2 °C 1027.0 hPa Calm   7.2 km/h 96 % 0.0 mm
16:08 0.8 °C 0.2 °C 1027.0 hPa Calm   7.2 km/h 96 % 0.0 mm
16:13 0.7 °C 0.1 °C 1027.0 hPa West 6.4 km/h 9.3 km/h 96 % 0.0 mm
16:15 0.7 °C 0.1 °C 1027.0 hPa West 5.0 km/h 9.3 km/h 96 % 0.0 mm
16:20 0.7 °C 0.1 °C 1027.0 hPa West 7.9 km/h 10.5 km/h 96 % 0.0 mm
16:25 0.7 °C 0.1 °C 1027.0 hPa WSW 2.1 km/h 10.5 km/h 96 % 0.0 mm
16:30 0.7 °C 0.3 °C 1027.0 hPa WSW 5.0 km/h 7.9 km/h 97 % 0.0 mm
16:35 0.7 °C 0.3 °C 1027.0 hPa Calm   6.9 km/h 97 % 0.0 mm
16:40 0.7 °C 0.3 °C 1027.0 hPa West 4.3 km/h 6.1 km/h 97 % 0.0 mm
16:45 0.6 °C 0.2 °C 1027.0 hPa West 6.1 km/h 9.0 km/h 97 % 0.0 mm
16:50 0.6 °C 0.2 °C 1027.0 hPa West 7.9 km/h 11.9 km/h 97 % 0.0 mm
16:55 0.6 °C 0.2 °C 1028.0 hPa WSW 5.8 km/h 11.9 km/h 97 % 0.0 mm
17:00 0.5 °C 0.1 °C 1028.0 hPa Calm   9.7 km/h 97 % 0.0 mm
17:05 0.4 °C -0.1 °C 1028.0 hPa Calm   6.4 km/h 97 % 0.0 mm
17:10 0.4 °C -0.1 °C 1027.0 hPa Calm   6.4 km/h 97 % 0.0 mm
17:15 0.3 °C -0.1 °C 1027.0 hPa SSW 5.0 km/h 7.6 km/h 97 % 0.0 mm
17:20 0.3 °C -0.1 °C 1027.0 hPa Calm   7.6 km/h 97 % 0.0 mm
17:25 0.3 °C -0.1 °C 1027.0 hPa Calm   6.1 km/h 97 % 0.0 mm
17:30 0.2 °C -0.2 °C 1027.0 hPa South 3.2 km/h 5.5 km/h 97 % 0.0 mm
17:35 0.2 °C -0.2 °C 1027.0 hPa Calm   5.5 km/h 97 % 0.0 mm
17:40 0.2 °C -0.2 °C 1027.0 hPa WSW 4.7 km/h 5.5 km/h 97 % 0.0 mm
17:45 0.2 °C -0.2 °C 1027.0 hPa Calm   6.4 km/h 97 % 0.0 mm
17:50 0.1 °C -0.3 °C 1027.0 hPa SSW 1.4 km/h 6.4 km/h 97 % 0.0 mm
17:55 0.1 °C -0.3 °C 1027.0 hPa Calm   6.1 km/h 97 % 0.0 mm
18:00 0.1 °C -0.3 °C 1027.0 hPa Calm   6.1 km/h 97 % 0.0 mm
18:05 0.1 °C -0.3 °C 1027.0 hPa WSW 6.4 km/h 6.9 km/h 97 % 0.0 mm
18:10 0.1 °C -0.3 °C 1027.0 hPa Calm   6.9 km/h 97 % 0.0 mm
18:15 0.1 °C -0.3 °C 1027.0 hPa WNW 1.8 km/h 7.6 km/h 97 % 0.0 mm
18:20 0.1 °C -0.3 °C 1027.0 hPa West 4.3 km/h 7.6 km/h 97 % 0.0 mm
18:25 0.0 °C -0.4 °C 1027.0 hPa West 6.4 km/h 6.9 km/h 97 % 0.0 mm
18:30 0.0 °C -0.4 °C 1027.0 hPa WNW 3.2 km/h 9.7 km/h 97 % 0.0 mm
18:35 -0.1 °C -0.5 °C 1027.0 hPa West 4.3 km/h 9.7 km/h 97 % 0.0 mm
18:40 -0.1 °C -0.5 °C 1027.0 hPa WNW 4.7 km/h 7.9 km/h 97 % 0.0 mm
18:45 -0.1 °C -0.5 °C 1027.0 hPa West 4.0 km/h 9.3 km/h 97 % 0.0 mm
18:50 -0.1 °C -0.5 °C 1027.0 hPa West 5.5 km/h 9.3 km/h 97 % 0.0 mm
18:55 -0.1 °C -0.4 °C 1027.0 hPa Calm   6.9 km/h 98 % 0.0 mm
19:00 -0.1 °C -0.4 °C 1027.0 hPa WSW 6.1 km/h 6.9 km/h 98 % 0.0 mm
19:05 -0.1 °C -0.4 °C 1027.0 hPa West 6.4 km/h 8.7 km/h 98 % 0.0 mm
19:10 -0.2 °C -0.5 °C 1027.0 hPa West 8.7 km/h 9.3 km/h 98 % 0.0 mm
19:15 -0.3 °C -0.6 °C 1027.0 hPa WSW 6.1 km/h 10.1 km/h 98 % 0.0 mm
19:20 -0.3 °C -0.6 °C 1027.0 hPa SW 5.5 km/h 10.1 km/h 98 % 0.0 mm
19:25 -0.3 °C -0.6 °C 1027.0 hPa WSW 5.0 km/h 9.7 km/h 98 % 0.0 mm
19:30 -0.3 °C -0.6 °C 1027.0 hPa West 5.5 km/h 7.9 km/h 98 % 0.0 mm
19:35 -0.3 °C -0.6 °C 1027.0 hPa SW 4.3 km/h 7.9 km/h 98 % 0.0 mm
19:40 -0.3 °C -0.6 °C 1027.0 hPa WSW 4.3 km/h 6.9 km/h 98 % 0.0 mm
19:45 -0.3 °C -0.6 °C 1027.0 hPa SW 1.4 km/h 6.9 km/h 98 % 0.0 mm
19:50 -0.3 °C -0.6 °C 1027.0 hPa Calm   6.4 km/h 98 % 0.0 mm
19:55 -0.3 °C -0.6 °C 1027.0 hPa SW 4.0 km/h 6.4 km/h 98 % 0.0 mm
19:56 -0.3 °C -0.6 °C 1027.0 hPa SW 4.7 km/h 6.4 km/h 98 % 0.0 mm
20:01 -0.3 °C -0.6 °C 1027.0 hPa South 2.1 km/h 6.1 km/h 98 % 0.0 mm
20:06 -0.4 °C -0.7 °C 1027.0 hPa Calm   5.8 km/h 98 % 0.0 mm
20:11 -0.4 °C -0.7 °C 1027.0 hPa Calm   4.3 km/h 98 % 0.0 mm
20:16 -0.4 °C -0.7 °C 1027.0 hPa Calm     98 % 0.0 mm
20:21 -0.4 °C -0.7 °C 1027.0 hPa Calm     98 % 0.0 mm
20:26 -0.4 °C -0.7 °C 1027.0 hPa Calm   2.1 km/h 98 % 0.0 mm
20:31 -0.4 °C -0.7 °C 1027.0 hPa Calm   6.1 km/h 98 % 0.0 mm
20:36 -0.4 °C -0.7 °C 1027.0 hPa Calm   6.1 km/h 98 % 0.0 mm
20:41 -0.4 °C -0.7 °C 1026.0 hPa Calm   6.1 km/h 98 % 0.0 mm
20:46 -0.4 °C -0.7 °C 1026.0 hPa WSW 5.5 km/h 6.4 km/h 98 % 0.0 mm
20:51 -0.4 °C -0.7 °C 1026.0 hPa WSW 6.4 km/h 7.9 km/h 98 % 0.0 mm
20:56 -0.4 °C -0.7 °C 1027.0 hPa WSW 4.7 km/h 7.9 km/h 98 % 0.0 mm
21:01 -0.4 °C -0.7 °C 1027.0 hPa SSW 4.0 km/h 6.4 km/h 98 % 0.0 mm
21:06 -0.4 °C -0.7 °C 1027.0 hPa WSW 3.2 km/h 6.1 km/h 98 % 0.0 mm
21:11 -0.4 °C -0.7 °C 1027.0 hPa SW 4.7 km/h 6.1 km/h 98 % 0.0 mm
21:16 -0.4 °C -0.7 °C 1027.0 hPa WSW 4.3 km/h 5.8 km/h 98 % 0.0 mm
21:21 -0.4 °C -0.7 °C 1027.0 hPa WSW 6.1 km/h 6.4 km/h 98 % 0.0 mm
21:26 -0.4 °C -0.7 °C 1027.0 hPa SW 4.7 km/h 6.4 km/h 98 % 0.0 mm
21:31 -0.4 °C -0.7 °C 1027.0 hPa SW 5.5 km/h 6.9 km/h 98 % 0.0 mm
21:36 -0.4 °C -0.7 °C 1027.0 hPa SW 5.8 km/h 7.6 km/h 98 % 0.0 mm
21:41 -0.3 °C -0.6 °C 1027.0 hPa SW 7.9 km/h 8.7 km/h 98 % 0.0 mm
21:46 -0.3 °C -0.6 °C 1027.0 hPa WSW 8.7 km/h 8.7 km/h 98 % 0.0 mm
21:51 -0.3 °C -0.6 °C 1027.0 hPa WSW 10.5 km/h 10.5 km/h 98 % 0.0 mm
21:56 -0.3 °C -0.6 °C 1026.0 hPa SW 5.0 km/h 10.5 km/h 98 % 0.0 mm
22:01 -0.3 °C -0.6 °C 1026.0 hPa SSW 5.5 km/h 10.5 km/h 98 % 0.0 mm
22:06 -0.3 °C -0.6 °C 1026.0 hPa SSW 5.5 km/h 8.7 km/h 98 % 0.0 mm
22:11 -0.3 °C -0.6 °C 1027.0 hPa SSW 4.0 km/h 6.9 km/h 98 % 0.0 mm
22:16 -0.3 °C -0.6 °C 1027.0 hPa SW 6.4 km/h 7.9 km/h 98 % 0.0 mm
22:21 -0.3 °C -0.6 °C 1027.0 hPa SW 5.0 km/h 8.7 km/h 98 % 0.0 mm
22:26 -0.3 °C -0.6 °C 1027.0 hPa WSW 6.4 km/h 8.7 km/h 98 % 0.0 mm
22:31 -0.3 °C -0.6 °C 1027.0 hPa WSW 5.0 km/h 9.0 km/h 98 % 0.0 mm
22:36 -0.3 °C -0.6 °C 1027.0 hPa SW 6.1 km/h 9.0 km/h 98 % 0.0 mm
22:41 -0.3 °C -0.6 °C 1028.0 hPa Calm   7.9 km/h 98 % 0.0 mm
22:46 -0.3 °C -0.6 °C 1028.0 hPa Calm   7.9 km/h 98 % 0.0 mm
22:51 -0.3 °C -0.6 °C 1028.0 hPa Calm   6.4 km/h 98 % 0.0 mm
22:56 -0.3 °C -0.6 °C 1027.0 hPa SW 6.4 km/h 7.9 km/h 98 % 0.0 mm
23:01 -0.4 °C -0.7 °C 1027.0 hPa WSW 5.0 km/h 7.9 km/h 98 % 0.0 mm
23:06 -0.4 °C -0.7 °C 1027.0 hPa SW 5.5 km/h 6.9 km/h 98 % 0.0 mm
23:11 -0.4 °C -0.7 °C 1027.0 hPa WSW 6.4 km/h 6.4 km/h 98 % 0.0 mm
23:16 -0.3 °C -0.6 °C 1027.0 hPa Calm   6.4 km/h 98 % 0.0 mm
23:21 -0.3 °C -0.6 °C 1027.0 hPa SSW 5.8 km/h 6.9 km/h 98 % 0.0 mm
23:26 -0.3 °C -0.6 °C 1027.0 hPa SW 5.8 km/h 6.9 km/h 98 % 0.0 mm
23:31 -0.3 °C -0.6 °C 1027.0 hPa WSW 5.0 km/h 7.6 km/h 98 % 0.0 mm
23:36 -0.3 °C -0.6 °C 1027.0 hPa WSW 6.9 km/h 7.6 km/h 98 % 0.0 mm
23:41 -0.3 °C -0.6 °C 1027.0 hPa WSW 9.0 km/h 9.0 km/h 98 % 0.0 mm
23:46 -0.3 °C -0.6 °C 1027.0 hPa WSW 6.9 km/h 9.0 km/h 98 % 0.0 mm
23:51 -0.3 °C -0.6 °C 1027.0 hPa WSW 9.0 km/h 9.3 km/h 98 % 0.0 mm
23:56 -0.3 °C -0.6 °C 1027.0 hPa SW 6.1 km/h 9.3 km/h 98 % 0.0 mm
Le Gheer Warneton
Courtoisie de Weather Underground - 2.25 mb

Mise a jour : 18/12/2017 04:10:17
Généré par Cumulus 1.9.4 (1099)